createdAt,value
2023-04-23T00:00:59.360Z,101120.56
2023-04-23T00:03:29.986Z,101119.81
2023-04-23T00:06:00.171Z,101111.03
2023-04-23T00:08:30.400Z,101113.66
2023-04-23T00:10:59.911Z,101112.78
2023-04-23T00:13:29.626Z,101108.56
2023-04-23T00:16:03.522Z,101099.63
2023-04-23T00:18:34.208Z,101099.78
2023-04-23T00:21:03.725Z,101097.59
2023-04-23T00:23:33.011Z,101078.44
2023-04-23T00:26:03.255Z,101079.84
2023-04-23T00:28:35.432Z,101080.06
2023-04-23T00:31:07.060Z,101078.00
2023-04-23T00:33:39.418Z,101075.91
2023-04-23T00:36:08.825Z,101084.06
2023-04-23T00:38:38.226Z,101080.78
2023-04-23T00:41:08.150Z,101068.19
2023-04-23T00:43:38.949Z,101064.97
2023-04-23T00:46:08.584Z,101059.38
2023-04-23T00:48:38.195Z,101046.53
2023-04-23T00:51:08.021Z,101040.03
2023-04-23T00:53:37.205Z,101047.25
2023-04-23T00:56:06.965Z,101037.44
2023-04-23T00:58:36.583Z,101033.59
2023-04-23T01:01:07.148Z,101032.63
2023-04-23T01:03:39.032Z,101031.56
2023-04-23T01:06:19.011Z,101027.19
2023-04-23T01:08:58.325Z,101020.63
2023-04-23T01:11:31.631Z,101011.84
2023-04-23T01:14:04.103Z,101014.56
2023-04-23T01:16:33.722Z,101012.91
2023-04-23T01:19:11.485Z,101006.44
2023-04-23T01:21:44.153Z,101008.16
2023-04-23T01:24:28.037Z,101005.06
2023-04-23T01:26:57.274Z,100988.63
2023-04-23T01:29:27.232Z,100973.03
2023-04-23T01:31:56.919Z,100971.44
2023-04-23T01:34:26.289Z,100966.72
2023-04-23T01:36:58.494Z,100960.34
2023-04-23T01:39:27.840Z,100963.59
2023-04-23T01:42:00.221Z,100961.91
2023-04-23T01:44:32.903Z,100953.97
2023-04-23T01:47:09.739Z,100953.72
2023-04-23T01:49:38.950Z,100951.75
2023-04-23T01:52:11.146Z,100953.06
2023-04-23T01:54:43.233Z,100943.03
2023-04-23T01:57:33.479Z,100942.75
2023-04-23T02:00:09.315Z,100932.78
2023-04-23T02:02:44.044Z,100936.28
2023-04-23T02:05:20.347Z,100930.91
2023-04-23T02:07:51.509Z,100930.97
2023-04-23T02:10:30.830Z,100931.06
2023-04-23T02:13:03.970Z,100931.13
2023-04-23T02:15:35.601Z,100929.47
2023-04-23T02:18:22.172Z,100919.06
2023-04-23T02:21:05.430Z,100912.97
2023-04-23T02:23:36.156Z,100914.63
2023-04-23T02:26:05.985Z,100916.75
2023-04-23T02:28:38.788Z,100905.63
2023-04-23T02:32:21.700Z,100909.47
2023-04-23T02:34:10.594Z,100909.16
2023-04-23T02:36:40.382Z,100908.38
2023-04-23T02:39:18.487Z,100905.38
2023-04-23T02:41:59.468Z,100912.22
2023-04-23T02:44:33.079Z,100904.88
2023-04-23T02:47:05.281Z,100902.00
2023-04-23T02:49:37.319Z,100894.09
2023-04-23T02:52:28.356Z,100891.06
2023-04-23T02:55:00.808Z,100892.69
2023-04-23T02:57:30.472Z,100896.66
2023-04-23T03:00:00.193Z,100897.50
2023-04-23T03:02:39.632Z,100889.56
2023-04-23T03:05:12.022Z,100890.06
2023-04-23T03:07:44.140Z,100892.88
2023-04-23T03:10:13.166Z,100890.53
2023-04-23T03:12:46.271Z,100882.53
2023-04-23T03:15:21.083Z,100875.75
2023-04-23T03:17:52.536Z,100868.97
2023-04-23T03:20:22.713Z,100863.44
2023-04-23T03:22:52.757Z,100854.75
2023-04-23T03:25:25.194Z,100851.53
2023-04-23T03:27:55.185Z,100829.19
2023-04-23T03:30:24.735Z,100830.41
2023-04-23T03:32:57.102Z,100832.47
2023-04-23T03:35:27.236Z,100835.59
2023-04-23T03:37:58.453Z,100817.69
2023-04-23T03:43:21.442Z,100811.72
2023-04-23T03:46:09.474Z,100814.09
2023-04-23T03:48:47.774Z,100801.41
2023-04-23T03:51:28.961Z,100804.56
2023-04-23T03:53:58.730Z,100793.44
2023-04-23T03:56:33.799Z,100789.44
2023-04-23T03:59:24.376Z,100791.84
2023-04-23T04:02:02.430Z,100790.25
2023-04-23T04:04:41.791Z,100791.06
2023-04-23T04:07:13.023Z,100787.09
2023-04-23T04:09:42.069Z,100773.97
2023-04-23T04:12:11.257Z,100770.41
2023-04-23T04:14:40.882Z,100771.16
2023-04-23T04:17:10.403Z,100768.38
2023-04-23T04:19:40.305Z,100765.97
2023-04-23T04:22:11.250Z,100764.00
2023-04-23T04:24:42.889Z,100760.00
2023-04-23T04:27:12.530Z,100762.41
2023-04-23T04:29:44.312Z,100757.66
2023-04-23T04:32:14.393Z,100752.16
2023-04-23T04:34:44.108Z,100740.25
2023-04-23T04:37:13.777Z,100736.22
2023-04-23T04:39:43.377Z,100735.00
2023-04-23T04:42:14.014Z,100729.88
2023-04-23T04:44:44.281Z,100715.56
2023-04-23T04:47:14.367Z,100717.50
2023-04-23T04:49:43.393Z,100713.94
2023-04-23T04:52:16.200Z,100709.59
2023-04-23T04:54:45.316Z,100713.97
2023-04-23T04:57:14.354Z,100708.03
2023-04-23T04:59:43.937Z,100698.13
2023-04-23T05:02:13.294Z,100693.38
2023-04-23T05:04:42.625Z,100688.63
2023-04-23T05:07:11.983Z,100675.06
2023-04-23T05:09:44.775Z,100683.78
2023-04-23T05:12:14.136Z,100688.53
2023-04-23T05:14:43.225Z,100687.75
2023-04-23T05:17:12.879Z,100682.28
2023-04-23T05:19:41.830Z,100677.91
2023-04-23T05:22:12.433Z,100668.78
2023-04-23T05:24:41.917Z,100664.00
2023-04-23T05:27:11.111Z,100660.41
2023-04-23T05:29:39.948Z,100651.31
2023-04-23T05:32:11.857Z,100654.41
2023-04-23T05:34:41.488Z,100658.75
2023-04-23T05:37:10.600Z,100658.38
2023-04-23T05:39:40.095Z,100671.13
2023-04-23T05:42:09.077Z,100662.00
2023-04-23T05:44:38.023Z,100656.09
2023-04-23T05:47:07.057Z,100652.91
2023-04-23T05:49:36.345Z,100652.06
2023-04-23T05:52:05.471Z,100660.44
2023-04-23T05:54:34.498Z,100650.91
2023-04-23T05:57:03.820Z,100646.97
2023-04-23T05:59:33.447Z,100641.00
2023-04-23T06:02:03.159Z,100637.00
2023-04-23T06:04:32.692Z,100622.72
2023-04-23T06:07:01.950Z,100612.78
2023-04-23T06:09:31.003Z,100611.56
2023-04-23T06:12:00.453Z,100613.91
2023-04-23T06:14:29.536Z,100617.84
2023-04-23T06:16:58.514Z,100604.31
2023-04-23T06:19:28.786Z,100602.72
2023-04-23T06:21:57.970Z,100605.16
2023-04-23T06:24:29.148Z,100604.31
2023-04-23T06:26:58.659Z,100603.09
2023-04-23T06:29:29.804Z,100597.97
2023-04-23T06:32:05.914Z,100593.19
2023-04-23T06:34:34.921Z,100593.97
2023-04-23T06:37:04.166Z,100595.56
2023-04-23T06:39:33.216Z,100582.06
2023-04-23T06:42:02.517Z,100574.91
2023-04-23T06:44:37.217Z,100559.00
2023-04-23T06:47:06.895Z,100555.03
2023-04-23T06:49:36.101Z,100552.66
2023-04-23T06:52:07.881Z,100543.53
2023-04-23T06:54:36.991Z,100542.34
2023-04-23T06:57:05.958Z,100544.75
2023-04-23T06:59:34.970Z,100547.16
2023-04-23T07:02:04.610Z,100547.53
2023-04-23T07:04:34.492Z,100540.34
2023-04-23T07:07:04.005Z,100539.16
2023-04-23T07:09:33.003Z,100538.38
2023-04-23T07:12:03.084Z,100536.81
2023-04-23T07:14:32.136Z,100524.88
2023-04-23T07:17:03.475Z,100526.50
2023-04-23T07:19:32.960Z,100528.91
2023-04-23T07:22:02.185Z,100529.75
2023-04-23T07:24:31.216Z,100527.69
2023-04-23T07:27:00.300Z,100527.28
2023-04-23T07:29:38.454Z,100524.91
2023-04-23T07:32:07.576Z,100521.78
2023-04-23T07:34:39.580Z,100510.66
2023-04-23T07:37:08.931Z,100515.50
2023-04-23T07:39:37.967Z,100502.34
2023-04-23T07:42:07.353Z,100501.59
2023-04-23T07:44:37.082Z,100504.34
2023-04-23T07:47:06.331Z,100501.88
2023-04-23T07:49:35.314Z,100500.81
2023-04-23T07:52:07.676Z,100494.06
2023-04-23T07:54:36.695Z,100496.41
2023-04-23T07:57:06.158Z,100494.09
2023-04-23T07:59:35.505Z,100489.31
2023-04-23T08:02:04.410Z,100483.31
2023-04-23T08:04:33.715Z,100487.34
2023-04-23T08:07:02.833Z,100483.75
2023-04-23T08:09:31.991Z,100480.16
2023-04-23T08:12:04.524Z,100484.53
2023-04-23T08:14:33.718Z,100490.88
2023-04-23T08:17:06.659Z,100474.22
2023-04-23T08:19:35.719Z,100469.81
2023-04-23T08:22:04.824Z,100459.16
2023-04-23T08:24:34.197Z,100450.41
2023-04-23T08:27:03.922Z,100440.91
2023-04-23T08:29:33.187Z,100434.53
2023-04-23T08:32:02.270Z,100438.91
2023-04-23T08:34:31.432Z,100430.56
2023-04-23T08:37:00.600Z,100429.34
2023-04-23T08:39:31.414Z,100420.66
2023-04-23T08:42:11.970Z,100425.78
2023-04-23T08:44:44.125Z,100414.66
2023-04-23T08:47:21.092Z,100411.41
2023-04-23T08:49:54.885Z,100401.91
2023-04-23T08:52:26.080Z,100394.44
2023-04-23T08:55:00.852Z,100394.84
2023-04-23T08:57:31.959Z,100394.06
2023-04-23T09:00:06.961Z,100388.91
2023-04-23T09:02:37.715Z,100382.94
2023-04-23T09:05:07.446Z,100379.28
2023-04-23T09:07:39.793Z,100382.84
2023-04-23T09:10:11.173Z,100378.09
2023-04-23T09:12:43.135Z,100373.41
2023-04-23T09:15:13.579Z,100366.28
2023-04-23T09:17:47.577Z,100367.00
2023-04-23T09:20:17.402Z,100367.03
2023-04-23T09:22:48.811Z,100362.25
2023-04-23T09:25:20.616Z,100354.38
2023-04-23T09:27:51.623Z,100349.59
2023-04-23T09:30:26.204Z,100353.59
2023-04-23T09:32:57.338Z,100344.38
2023-04-23T09:35:29.325Z,100339.63
2023-04-23T09:37:58.705Z,100340.44
2023-04-23T09:40:28.571Z,100335.25
2023-04-23T09:42:57.678Z,100336.88
2023-04-23T09:45:26.967Z,100334.50
2023-04-23T09:47:57.976Z,100330.59
2023-04-23T09:50:41.204Z,100328.25
2023-04-23T09:53:11.716Z,100319.22
2023-04-23T09:55:46.210Z,100321.63
2023-04-23T09:58:16.911Z,100311.69
2023-04-23T10:00:46.178Z,100318.03
2023-04-23T10:03:16.649Z,100300.63
2023-04-23T10:06:00.373Z,100305.34
2023-04-23T10:08:33.685Z,100306.06
2023-04-23T10:11:13.791Z,100301.38
2023-04-23T10:13:52.471Z,100291.09
2023-04-23T10:16:45.995Z,100280.75
2023-04-23T10:19:19.018Z,100275.19
2023-04-23T10:22:02.399Z,100277.16
2023-04-23T10:24:42.359Z,100265.69
2023-04-23T10:27:30.721Z,100261.38
2023-04-23T10:30:08.656Z,100258.16
2023-04-23T10:32:39.639Z,100264.06
2023-04-23T10:35:10.488Z,100262.50
2023-04-23T10:37:40.315Z,100249.00
2023-04-23T10:40:15.245Z,100252.16
2023-04-23T10:42:48.563Z,100248.13
2023-04-23T10:45:24.698Z,100254.56
2023-04-23T10:47:57.548Z,100258.63
2023-04-23T10:50:28.796Z,100249.16
2023-04-23T10:53:01.252Z,100241.13
2023-04-23T10:55:33.300Z,100237.13
2023-04-23T10:58:09.523Z,100243.00
2023-04-23T11:00:44.969Z,100245.06
2023-04-23T11:03:44.841Z,100242.69
2023-04-23T11:06:18.889Z,100245.13
2023-04-23T11:08:57.759Z,100255.41
2023-04-23T11:11:42.677Z,100253.00
2023-04-23T11:14:15.148Z,100250.59
2023-04-23T11:16:44.621Z,100239.56
2023-04-23T11:19:13.758Z,100234.03
2023-04-23T11:22:09.135Z,100229.34
2023-04-23T11:24:43.557Z,100230.91
2023-04-23T11:27:17.534Z,100218.06
2023-04-23T11:29:47.812Z,100226.88
2023-04-23T11:32:18.460Z,100230.13
2023-04-23T11:34:51.321Z,100227.75
2023-04-23T11:37:20.603Z,100222.97
2023-04-23T11:39:50.058Z,100226.13
2023-04-23T11:42:22.787Z,100232.47
2023-04-23T11:44:51.764Z,100224.53
2023-04-23T11:47:28.933Z,100231.28
2023-04-23T11:50:02.168Z,100235.28
2023-04-23T11:52:31.479Z,100240.31
2023-04-23T11:55:11.281Z,100252.22
2023-04-23T11:57:45.059Z,100258.63
2023-04-23T12:00:16.915Z,100255.41
2023-04-23T12:02:57.055Z,100262.16
2023-04-23T12:05:34.412Z,100252.25
2023-04-23T12:08:14.107Z,100262.09
2023-04-23T12:10:56.402Z,100265.66
2023-04-23T12:13:32.167Z,100266.88
2023-04-23T12:16:05.766Z,100272.09
2023-04-23T12:18:46.445Z,100272.00
2023-04-23T12:21:16.286Z,100260.50
2023-04-23T12:23:45.699Z,100262.53
2023-04-23T12:26:17.112Z,100258.13
2023-04-23T12:28:56.325Z,100261.69
2023-04-23T12:31:30.623Z,100264.16
2023-04-23T12:34:10.120Z,100248.25
2023-04-23T12:36:43.628Z,100245.03
2023-04-23T12:39:30.526Z,100251.34
2023-04-23T12:42:05.646Z,100252.88
2023-04-23T12:44:36.970Z,100260.06
2023-04-23T12:47:10.155Z,100259.38
2023-04-23T12:49:42.824Z,100253.88
2023-04-23T12:52:15.225Z,100251.44
2023-04-23T12:54:45.774Z,100241.09
2023-04-23T12:57:15.211Z,100240.69
2023-04-23T12:59:44.384Z,100251.47
2023-04-23T13:02:13.561Z,100235.56
2023-04-23T13:04:43.218Z,100253.06
2023-04-23T13:07:12.319Z,100245.84
2023-04-23T13:09:42.257Z,100247.88
2023-04-23T13:12:11.537Z,100255.41
2023-04-23T13:14:40.468Z,100260.22
2023-04-23T13:17:09.674Z,100249.84
2023-04-23T13:19:41.601Z,100252.25
2023-04-23T13:22:11.084Z,100265.72
2023-04-23T13:24:40.169Z,100265.28
2023-04-23T13:27:12.093Z,100275.28
2023-04-23T13:29:42.999Z,100272.88
2023-04-23T13:32:17.171Z,100274.03
2023-04-23T13:34:49.232Z,100282.38
2023-04-23T13:37:20.753Z,100283.16
2023-04-23T13:39:49.780Z,100284.34
2023-04-23T13:42:20.379Z,100288.69
2023-04-23T13:44:52.722Z,100299.81
2023-04-23T13:47:21.863Z,100291.50
2023-04-23T13:49:51.172Z,100297.88
2023-04-23T13:52:20.116Z,100292.72
2023-04-23T13:54:49.946Z,100300.63
2023-04-23T13:57:18.937Z,100303.44
2023-04-23T13:59:48.021Z,100311.78
2023-04-23T14:02:17.953Z,100317.72
2023-04-23T14:04:47.395Z,100323.69
2023-04-23T14:07:19.298Z,100330.00
2023-04-23T14:09:48.469Z,100340.31
2023-04-23T14:12:17.510Z,100347.44
2023-04-23T14:14:46.648Z,100336.34
2023-04-23T14:17:16.244Z,100337.94
2023-04-23T14:19:45.179Z,100339.91
2023-04-23T14:22:14.380Z,100346.22
2023-04-23T14:24:51.732Z,100355.34
2023-04-23T14:27:35.112Z,100351.81
2023-04-23T14:30:10.190Z,100360.53
2023-04-23T14:32:40.775Z,100358.16
2023-04-23T14:35:10.170Z,100370.44
2023-04-23T14:37:39.428Z,100353.00
2023-04-23T14:40:09.224Z,100357.75
2023-04-23T14:42:41.288Z,100369.22
2023-04-23T14:45:10.691Z,100377.50
2023-04-23T14:47:41.563Z,100379.06
2023-04-23T14:50:11.284Z,100378.31
2023-04-23T14:52:40.662Z,100379.84
2023-04-23T14:55:10.020Z,100383.06
2023-04-23T14:57:39.264Z,100393.34
2023-04-23T15:00:09.111Z,100383.03
2023-04-23T15:02:39.253Z,100392.53
2023-04-23T15:05:11.581Z,100398.09
2023-04-23T15:07:42.065Z,100401.22
2023-04-23T15:10:12.442Z,100404.44
2023-04-23T15:12:41.469Z,100411.66
2023-04-23T15:15:44.437Z,100417.09
2023-04-23T15:18:18.106Z,100412.34
2023-04-23T15:20:47.548Z,100417.50
2023-04-23T15:23:16.551Z,100429.75
2023-04-23T15:25:45.681Z,100435.28
2023-04-23T15:28:14.657Z,100439.63
2023-04-23T15:30:45.684Z,100450.69
2023-04-23T15:33:14.700Z,100461.78
2023-04-23T15:35:43.662Z,100458.13
2023-04-23T15:38:12.585Z,100469.25
2023-04-23T15:40:43.433Z,100479.59
2023-04-23T15:43:15.705Z,100489.59
2023-04-23T15:45:48.719Z,100500.34
2023-04-23T15:48:18.270Z,100500.75
2023-04-23T15:50:47.401Z,100505.03
2023-04-23T15:53:16.580Z,100515.59
2023-04-23T15:55:45.633Z,100518.81
2023-04-23T15:58:14.699Z,100523.97
2023-04-23T16:00:43.698Z,100527.50
2023-04-23T16:03:15.703Z,100530.59
2023-04-23T16:05:50.963Z,100545.66
2023-04-23T16:08:20.595Z,100528.16
2023-04-23T16:10:49.612Z,100532.09
2023-04-23T16:13:20.982Z,100538.41
2023-04-23T16:15:49.994Z,100536.84
2023-04-23T16:18:19.184Z,100545.53
2023-04-23T16:20:48.296Z,100546.41
2023-04-23T16:23:17.267Z,100563.81
2023-04-23T16:25:46.451Z,100562.19
2023-04-23T16:28:15.443Z,100573.22
2023-04-23T16:30:57.385Z,100581.81
2023-04-23T16:33:28.204Z,100585.72
2023-04-23T16:36:02.419Z,100580.13
2023-04-23T16:38:33.584Z,100580.13
2023-04-23T16:41:05.068Z,100582.41
2023-04-23T16:43:34.140Z,100580.13
2023-04-23T16:46:03.092Z,100587.38
2023-04-23T16:48:32.200Z,100593.81
2023-04-23T16:51:01.155Z,100596.09
2023-04-23T16:53:30.314Z,100609.31
2023-04-23T16:55:59.634Z,100606.63
2023-04-23T16:58:29.700Z,100606.06
2023-04-23T17:00:58.763Z,100611.00
2023-04-23T17:03:27.977Z,100625.81
2023-04-23T17:06:12.277Z,100625.09
2023-04-23T17:08:41.304Z,100628.19
2023-04-23T17:11:10.299Z,100628.09
2023-04-23T17:13:40.236Z,100632.00
2023-04-23T17:16:09.408Z,100633.91
2023-04-23T17:18:38.513Z,100632.25
2023-04-23T17:21:07.863Z,100645.00
2023-04-23T17:23:36.878Z,100639.69
2023-04-23T17:26:06.043Z,100660.25
2023-04-23T17:28:35.084Z,100671.09
2023-04-23T17:31:04.565Z,100677.63
2023-04-23T17:33:33.684Z,100677.78
2023-04-23T17:36:02.808Z,100672.38
2023-04-23T17:38:32.146Z,100689.94
2023-04-23T17:41:01.298Z,100695.81
2023-04-23T17:43:32.777Z,100692.09
2023-04-23T17:46:04.476Z,100697.81
2023-04-23T17:48:33.807Z,100691.56
2023-04-23T17:51:03.026Z,100704.94
2023-04-23T17:53:32.315Z,100701.88
2023-04-23T17:56:03.903Z,100698.41
2023-04-23T17:58:32.979Z,100693.38
2023-04-23T18:01:03.881Z,100691.50
2023-04-23T18:03:33.541Z,100689.41
2023-04-23T18:06:03.349Z,100688.13
2023-04-23T18:08:32.359Z,100688.66
2023-04-23T18:11:01.639Z,100685.53
2023-04-23T18:13:31.752Z,100695.34
2023-04-23T18:16:01.754Z,100691.19
2023-04-23T18:18:30.899Z,100695.28
2023-04-23T18:21:00.269Z,100695.28
2023-04-23T18:23:29.994Z,100689.25
2023-04-23T18:26:02.236Z,100689.50
2023-04-23T18:28:35.710Z,100683.94
2023-04-23T18:31:05.615Z,100675.38
2023-04-23T18:33:42.338Z,100674.69
2023-04-23T18:36:22.722Z,100679.44
2023-04-23T18:38:51.705Z,100685.03
2023-04-23T18:41:20.827Z,100670.81
2023-04-23T18:43:49.837Z,100681.31
2023-04-23T18:46:18.922Z,100680.13
2023-04-23T18:48:52.797Z,100683.28
2023-04-23T18:51:32.447Z,100686.06
2023-04-23T18:54:02.788Z,100682.31
2023-04-23T18:56:32.505Z,100671.28
2023-04-23T18:59:01.585Z,100684.84
2023-04-23T19:01:30.754Z,100681.25
2023-04-23T19:04:03.740Z,100683.56
2023-04-23T19:06:33.471Z,100678.88
2023-04-23T19:09:02.407Z,100682.72
2023-04-23T19:11:35.749Z,100693.53
2023-04-23T19:14:05.414Z,100687.91
2023-04-23T19:16:35.059Z,100685.63
2023-04-23T19:19:04.342Z,100683.81
2023-04-23T19:21:33.333Z,100679.03
2023-04-23T19:24:02.385Z,100681.38
2023-04-23T19:26:31.491Z,100676.81
2023-04-23T19:29:00.839Z,100687.91
2023-04-23T19:31:31.550Z,100686.34
2023-04-23T19:34:00.643Z,100692.75
2023-04-23T19:36:30.267Z,100691.22
2023-04-23T19:38:59.251Z,100693.50
2023-04-23T19:41:30.932Z,100701.06
2023-04-23T19:43:59.877Z,100694.63
2023-04-23T19:46:29.020Z,100703.44
2023-04-23T19:48:58.166Z,100698.22
2023-04-23T19:51:30.240Z,100704.63
2023-04-23T19:53:59.773Z,100708.53
2023-04-23T19:56:28.948Z,100720.53
2023-04-23T19:58:58.174Z,100705.53
2023-04-23T20:01:28.971Z,100706.44
2023-04-23T20:03:58.238Z,100719.13
2023-04-23T20:06:27.417Z,100714.38
2023-04-23T20:09:09.377Z,100726.31
2023-04-23T20:11:38.354Z,100728.63
2023-04-23T20:14:07.742Z,100724.81
2023-04-23T20:16:37.280Z,100726.41
2023-04-23T20:19:10.399Z,100731.97
2023-04-23T20:21:40.971Z,100728.00
2023-04-23T20:24:11.818Z,100730.00
2023-04-23T20:26:42.891Z,100726.00
2023-04-23T20:29:12.205Z,100728.81
2023-04-23T20:31:41.456Z,100725.63
2023-04-23T20:34:11.860Z,100712.94
2023-04-23T20:36:40.964Z,100723.25
2023-04-23T20:39:10.342Z,100731.13
2023-04-23T20:41:39.418Z,100724.78
2023-04-23T20:44:08.498Z,100733.59
2023-04-23T20:46:37.736Z,100732.84
2023-04-23T20:49:06.742Z,100726.13
2023-04-23T20:51:35.861Z,100736.03
2023-04-23T20:54:05.597Z,100743.50
2023-04-23T20:56:34.733Z,100737.50
2023-04-23T20:59:05.025Z,100741.47
2023-04-23T21:01:34.313Z,100738.25
2023-04-23T21:04:03.669Z,100738.69
2023-04-23T21:06:34.180Z,100728.00
2023-04-23T21:09:03.331Z,100738.34
2023-04-23T21:11:33.303Z,100733.69
2023-04-23T21:14:02.606Z,100736.81
2023-04-23T21:16:32.055Z,100744.00
2023-04-23T21:19:01.310Z,100738.38
2023-04-23T21:21:32.950Z,100746.28
2023-04-23T21:24:02.047Z,100736.81
2023-04-23T21:26:32.385Z,100739.25
2023-04-23T21:29:01.508Z,100740.47
2023-04-23T21:31:36.687Z,100740.44
2023-04-23T21:34:05.804Z,100742.38
2023-04-23T21:36:34.798Z,100748.72
2023-04-23T21:39:04.251Z,100752.63
2023-04-23T21:41:33.829Z,100747.91
2023-04-23T21:44:03.024Z,100756.66
2023-04-23T21:46:32.906Z,100752.63
2023-04-23T21:49:03.082Z,100743.13
2023-04-23T21:51:37.143Z,100751.38
2023-04-23T21:54:07.050Z,100746.16
2023-04-23T21:56:36.747Z,100750.16
2023-04-23T21:59:05.622Z,100747.88
2023-04-23T22:01:36.662Z,100748.69
2023-04-23T22:04:06.162Z,100750.25
2023-04-23T22:06:36.059Z,100746.34
2023-04-23T22:09:06.703Z,100741.56
2023-04-23T22:11:35.821Z,100743.22
2023-04-23T22:14:04.846Z,100746.44
2023-04-23T22:16:35.032Z,100743.31
2023-04-23T22:19:05.332Z,100739.34
2023-04-23T22:21:34.351Z,100732.66
2023-04-23T22:24:04.485Z,100737.00
2023-04-23T22:26:34.807Z,100738.63
2023-04-23T22:29:04.100Z,100744.97
2023-04-23T22:31:33.179Z,100739.41
2023-04-23T22:34:02.563Z,100742.19
2023-04-23T22:36:32.750Z,100741.81
2023-04-23T22:39:02.732Z,100738.97
2023-04-23T22:41:33.598Z,100733.81
2023-04-23T22:44:02.975Z,100739.00
2023-04-23T22:46:32.599Z,100742.53
2023-04-23T22:49:02.050Z,100752.03
2023-04-23T22:51:34.168Z,100740.06
2023-04-23T22:54:03.308Z,100740.13
2023-04-23T22:56:32.273Z,100746.06
2023-04-23T22:59:01.310Z,100744.03
2023-04-23T23:01:30.198Z,100749.63
2023-04-23T23:03:59.280Z,100753.59
2023-04-23T23:06:28.801Z,100756.00
2023-04-23T23:08:57.769Z,100759.19
2023-04-23T23:11:29.995Z,100759.94
2023-04-23T23:13:59.392Z,100765.44
2023-04-23T23:16:28.653Z,100764.28
2023-04-23T23:18:58.876Z,100757.13
2023-04-23T23:21:28.031Z,100764.75
2023-04-23T23:23:57.195Z,100752.78
2023-04-23T23:26:27.045Z,100753.56
2023-04-23T23:28:58.871Z,100759.47
2023-04-23T23:31:28.582Z,100764.28
2023-04-23T23:33:57.776Z,100753.53
2023-04-23T23:36:26.936Z,100755.94
2023-04-23T23:38:56.131Z,100753.53
2023-04-23T23:41:25.132Z,100764.63
2023-04-23T23:43:54.776Z,100755.81
2023-04-23T23:46:23.798Z,100761.00
2023-04-23T23:48:53.079Z,100771.28
2023-04-23T23:51:22.148Z,100776.41
2023-04-23T23:53:51.118Z,100767.63
2023-04-23T23:56:20.833Z,100766.84
2023-04-23T23:58:49.816Z,100763.25
